createdAt,value
2023-02-23T00:02:07.221Z,50.53
2023-02-23T00:04:35.435Z,47.15
2023-02-23T00:07:02.382Z,47.15
2023-02-23T00:09:35.479Z,46.85
2023-02-23T00:12:08.312Z,45.03
2023-02-23T00:14:37.577Z,49.85
2023-02-23T00:17:04.725Z,43.80
2023-02-23T00:19:33.377Z,43.70
2023-02-23T00:22:01.091Z,47.17
2023-02-23T00:24:27.811Z,46.80
2023-02-23T00:26:54.488Z,46.17
2023-02-23T00:29:23.178Z,46.55
2023-02-23T00:31:51.461Z,46.80
2023-02-23T00:34:23.592Z,47.28
2023-02-23T00:36:54.332Z,47.15
2023-02-23T00:39:23.709Z,46.92
2023-02-23T00:41:52.236Z,46.78
2023-02-23T00:44:19.491Z,44.90
2023-02-23T00:46:51.017Z,44.95
2023-02-23T00:49:18.877Z,48.05
2023-02-23T00:51:45.546Z,45.25
2023-02-23T00:54:17.551Z,47.15
2023-02-23T00:59:12.843Z,43.85
2023-02-23T01:01:41.698Z,46.90
2023-02-23T01:04:09.310Z,48.53
2023-02-23T01:06:37.674Z,46.42
2023-02-23T01:09:10.077Z,48.35
2023-02-23T01:11:38.330Z,46.75
2023-02-23T01:14:05.141Z,46.70
2023-02-23T01:16:34.731Z,47.38
2023-02-23T01:19:04.071Z,48.60
2023-02-23T01:21:33.993Z,48.17
2023-02-23T01:24:02.255Z,51.00
2023-02-23T01:26:37.612Z,49.67
2023-02-23T01:29:10.556Z,50.75
2023-02-23T01:31:39.853Z,52.28
2023-02-23T01:34:11.803Z,50.40
2023-02-23T01:36:40.199Z,48.88
2023-02-23T01:39:12.212Z,50.50
2023-02-23T01:41:42.379Z,47.78
2023-02-23T01:44:31.690Z,47.53
2023-02-23T01:46:58.361Z,48.35
2023-02-23T01:49:28.307Z,46.25
2023-02-23T01:52:00.291Z,47.28
2023-02-23T01:54:32.918Z,45.58
2023-02-23T01:57:02.475Z,46.75
2023-02-23T01:59:38.094Z,50.67
2023-02-23T02:02:07.642Z,48.33
2023-02-23T02:04:46.003Z,45.78
2023-02-23T02:07:35.175Z,45.40
2023-02-23T02:10:22.510Z,50.53
2023-02-23T02:13:05.776Z,45.42
2023-02-23T02:15:38.675Z,48.60
2023-02-23T02:18:41.619Z,48.85
2023-02-23T02:21:17.821Z,47.88
2023-02-23T02:24:04.089Z,48.63
2023-02-23T02:26:36.874Z,45.47
2023-02-23T02:29:26.371Z,46.22
2023-02-23T02:32:21.322Z,50.95
2023-02-23T02:35:09.637Z,46.67
2023-02-23T02:37:48.330Z,48.67
2023-02-23T02:40:53.365Z,45.90
2023-02-23T02:43:27.359Z,48.13
2023-02-23T02:46:14.752Z,45.47
2023-02-23T02:49:06.711Z,50.17
2023-02-23T02:51:46.727Z,44.38
2023-02-23T02:54:24.201Z,45.08
2023-02-23T02:56:54.971Z,47.00
2023-02-23T02:59:40.224Z,47.97
2023-02-23T03:02:26.114Z,47.33
2023-02-23T03:05:12.175Z,44.67
2023-02-23T03:08:39.674Z,41.95
2023-02-23T03:11:33.077Z,42.55
2023-02-23T03:14:44.353Z,48.85
2023-02-23T03:18:03.433Z,48.40
2023-02-23T03:20:52.413Z,44.45
2023-02-23T03:23:44.594Z,45.25
2023-02-23T03:26:40.184Z,45.22
2023-02-23T03:29:36.690Z,45.53
2023-02-23T03:32:34.122Z,46.00
2023-02-23T03:35:31.591Z,46.35
2023-02-23T03:38:29.177Z,47.45
2023-02-23T03:41:16.436Z,46.60
2023-02-23T03:44:12.722Z,46.53
2023-02-23T03:47:00.194Z,49.60
2023-02-23T03:49:52.473Z,45.58
2023-02-23T03:52:46.227Z,44.22
2023-02-23T03:55:36.981Z,45.47
2023-02-23T03:58:27.031Z,45.97
2023-02-23T04:01:17.661Z,49.45
2023-02-23T04:04:05.696Z,46.80
2023-02-23T04:06:56.349Z,44.42
2023-02-23T04:09:41.651Z,48.80
2023-02-23T04:12:50.057Z,47.15
2023-02-23T04:15:35.926Z,44.53
2023-02-23T04:18:07.204Z,47.10
2023-02-23T04:20:33.871Z,47.35
2023-02-23T04:23:00.471Z,45.78
2023-02-23T04:25:28.389Z,48.78
2023-02-23T04:27:55.042Z,46.85
2023-02-23T04:30:25.654Z,48.63
2023-02-23T04:32:52.718Z,49.72
2023-02-23T04:35:19.478Z,47.97
2023-02-23T04:37:46.109Z,49.50
2023-02-23T04:40:13.062Z,44.03
2023-02-23T04:42:40.575Z,47.38
2023-02-23T04:45:08.593Z,47.35
2023-02-23T04:47:35.133Z,45.85
2023-02-23T04:50:01.805Z,46.83
2023-02-23T04:52:28.355Z,48.00
2023-02-23T04:54:54.856Z,49.05
2023-02-23T04:57:21.414Z,48.08
2023-02-23T04:59:48.043Z,45.15
2023-02-23T05:02:14.649Z,48.17
2023-02-23T05:04:41.269Z,48.78
2023-02-23T05:07:07.839Z,50.08
2023-02-23T05:09:35.028Z,45.20
2023-02-23T05:12:01.757Z,49.50
2023-02-23T05:14:28.492Z,48.50
2023-02-23T05:16:55.103Z,49.97
2023-02-23T05:19:21.890Z,48.40
2023-02-23T05:21:50.378Z,50.75
2023-02-23T05:24:17.948Z,49.55
2023-02-23T05:26:45.150Z,50.75
2023-02-23T05:29:12.606Z,48.00
2023-02-23T05:31:39.325Z,46.13
2023-02-23T05:34:06.740Z,51.17
2023-02-23T05:36:33.273Z,44.90
2023-02-23T05:39:00.391Z,47.08
2023-02-23T05:41:27.116Z,44.70
2023-02-23T05:43:55.135Z,47.85
2023-02-23T05:46:24.712Z,44.35
2023-02-23T05:48:55.888Z,47.47
2023-02-23T05:51:22.485Z,48.10
2023-02-23T05:53:49.063Z,42.13
2023-02-23T05:56:20.335Z,39.58
2023-02-23T05:58:51.968Z,43.15
2023-02-23T06:01:20.126Z,43.00
2023-02-23T06:03:47.652Z,42.13
2023-02-23T06:06:15.044Z,44.72
2023-02-23T06:08:42.538Z,43.00
2023-02-23T06:11:09.467Z,43.55
2023-02-23T06:13:36.288Z,41.38
2023-02-23T06:16:03.037Z,40.78
2023-02-23T06:18:29.912Z,41.97
2023-02-23T06:21:00.434Z,41.75
2023-02-23T06:23:28.193Z,40.42
2023-02-23T06:25:54.724Z,39.88
2023-02-23T06:28:21.477Z,39.33
2023-02-23T06:30:48.655Z,40.42
2023-02-23T06:33:15.304Z,42.05
2023-02-23T06:35:42.928Z,44.75
2023-02-23T06:38:09.536Z,39.92
2023-02-23T06:40:38.112Z,40.20
2023-02-23T06:43:05.186Z,41.97
2023-02-23T06:45:32.799Z,40.60
2023-02-23T06:48:00.099Z,37.97
2023-02-23T06:50:27.448Z,41.03
2023-02-23T06:52:54.031Z,42.55
2023-02-23T06:55:20.599Z,41.25
2023-02-23T06:57:49.262Z,43.95
2023-02-23T07:00:17.258Z,43.10
2023-02-23T07:02:44.786Z,45.22
2023-02-23T07:05:11.499Z,44.47
2023-02-23T07:07:38.523Z,44.08
2023-02-23T07:10:06.791Z,45.83
2023-02-23T07:12:33.519Z,40.92
2023-02-23T07:15:00.344Z,42.17
2023-02-23T07:17:26.871Z,40.78
2023-02-23T07:19:53.485Z,42.50
2023-02-23T07:22:20.046Z,39.60
2023-02-23T07:24:46.716Z,40.67
2023-02-23T07:27:13.334Z,39.15
2023-02-23T07:29:39.938Z,41.28
2023-02-23T07:32:06.585Z,40.70
2023-02-23T07:34:33.171Z,38.20
2023-02-23T07:36:59.720Z,39.72
2023-02-23T07:39:26.267Z,37.70
2023-02-23T07:41:52.792Z,39.05
2023-02-23T07:44:19.900Z,39.10
2023-02-23T07:46:46.541Z,41.40
2023-02-23T07:49:13.852Z,37.35
2023-02-23T07:51:40.969Z,38.85
2023-02-23T07:54:07.697Z,37.72
2023-02-23T07:56:35.259Z,39.58
2023-02-23T07:59:02.278Z,37.65
2023-02-23T08:01:29.045Z,36.15
2023-02-23T08:03:55.666Z,35.60
2023-02-23T08:06:22.370Z,35.65
2023-02-23T08:08:49.130Z,36.85
2023-02-23T08:11:15.873Z,36.92
2023-02-23T08:13:42.852Z,38.45
2023-02-23T08:16:09.473Z,38.60
2023-02-23T08:18:36.155Z,34.05
2023-02-23T08:21:04.200Z,37.42
2023-02-23T08:23:32.442Z,35.63
2023-02-23T08:26:00.783Z,39.92
2023-02-23T08:28:28.335Z,37.05
2023-02-23T08:30:55.206Z,37.00
2023-02-23T08:33:22.180Z,34.88
2023-02-23T08:35:48.760Z,37.67
2023-02-23T08:38:16.391Z,35.90
2023-02-23T08:40:43.411Z,35.97
2023-02-23T08:43:10.285Z,37.88
2023-02-23T08:45:38.648Z,36.95
2023-02-23T08:48:07.227Z,36.92
2023-02-23T08:50:33.877Z,38.88
2023-02-23T08:53:00.486Z,39.33
2023-02-23T08:55:27.358Z,40.17
2023-02-23T08:57:53.950Z,38.38
2023-02-23T09:00:20.998Z,38.60
2023-02-23T09:02:48.177Z,39.20
2023-02-23T09:05:15.792Z,37.30
2023-02-23T09:07:46.288Z,39.45
2023-02-23T09:10:15.125Z,39.60
2023-02-23T09:12:41.849Z,38.45
2023-02-23T09:15:09.034Z,39.97
2023-02-23T09:17:35.612Z,37.50
2023-02-23T09:20:02.261Z,37.17
2023-02-23T09:22:28.816Z,36.47
2023-02-23T09:24:55.288Z,35.50
2023-02-23T09:27:21.952Z,36.67
2023-02-23T09:29:48.571Z,36.05
2023-02-23T09:32:15.402Z,37.67
2023-02-23T09:34:42.086Z,36.05
2023-02-23T09:37:08.776Z,36.40
2023-02-23T09:39:38.606Z,34.17
2023-02-23T09:42:14.512Z,35.67
2023-02-23T09:45:09.152Z,36.85
2023-02-23T09:47:51.601Z,38.17
2023-02-23T09:50:24.288Z,36.63
2023-02-23T09:55:33.694Z,26.30
2023-02-23T09:58:08.525Z,39.60
2023-02-23T10:00:42.728Z,37.58
2023-02-23T10:03:23.627Z,36.67
2023-02-23T10:05:57.989Z,37.70
2023-02-23T10:08:39.931Z,37.50
2023-02-23T10:11:18.846Z,37.50
2023-02-23T10:13:55.335Z,36.15
2023-02-23T10:16:42.585Z,36.58
2023-02-23T10:19:21.642Z,37.67
2023-02-23T10:21:58.131Z,37.13
2023-02-23T10:24:35.353Z,37.60
2023-02-23T10:27:18.931Z,36.55
2023-02-23T10:29:51.332Z,39.28
2023-02-23T10:32:55.307Z,38.05
2023-02-23T10:35:23.335Z,37.20
2023-02-23T10:37:52.957Z,36.20
2023-02-23T10:40:23.431Z,36.28
2023-02-23T10:42:51.327Z,36.10
2023-02-23T10:45:26.690Z,35.10
2023-02-23T10:48:06.063Z,36.90
2023-02-23T10:50:33.950Z,37.92
2023-02-23T10:53:11.710Z,37.22
2023-02-23T10:55:38.678Z,38.70
2023-02-23T10:58:17.770Z,40.33
2023-02-23T11:00:59.443Z,37.92
2023-02-23T11:03:38.112Z,36.70
2023-02-23T11:06:05.188Z,49.88
2023-02-23T11:08:34.392Z,40.13
2023-02-23T11:11:05.988Z,42.70
2023-02-23T11:13:42.374Z,40.25
2023-02-23T11:16:14.776Z,36.88
2023-02-23T11:19:03.307Z,38.15
2023-02-23T11:21:35.821Z,37.38
2023-02-23T11:24:30.759Z,36.95
2023-02-23T11:27:03.713Z,33.65
2023-02-23T11:29:42.645Z,33.97
2023-02-23T11:32:23.440Z,36.75
2023-02-23T11:35:27.010Z,35.10
2023-02-23T11:37:54.323Z,36.63
2023-02-23T11:40:29.875Z,32.55
2023-02-23T11:43:07.293Z,32.85
2023-02-23T11:45:52.731Z,33.92
2023-02-23T11:48:31.413Z,35.58
2023-02-23T11:50:58.789Z,33.45
2023-02-23T11:53:38.308Z,31.80
2023-02-23T11:56:12.431Z,34.15
2023-02-23T11:58:39.240Z,31.15
2023-02-23T12:01:16.700Z,31.45
2023-02-23T12:03:56.965Z,30.98
2023-02-23T12:06:36.456Z,28.40
2023-02-23T12:09:18.483Z,29.25
2023-02-23T12:11:51.712Z,27.45
2023-02-23T12:14:29.375Z,26.55
2023-02-23T12:17:06.575Z,25.55
2023-02-23T12:19:36.455Z,29.00
2023-02-23T12:22:10.380Z,28.92
2023-02-23T12:25:02.514Z,27.77
2023-02-23T12:27:43.655Z,24.77
2023-02-23T12:30:27.905Z,26.50
2023-02-23T12:33:30.077Z,24.48
2023-02-23T12:36:02.526Z,25.75
2023-02-23T12:38:54.840Z,24.00
2023-02-23T12:41:38.762Z,24.33
2023-02-23T12:44:30.068Z,22.30
2023-02-23T12:46:59.729Z,21.20
2023-02-23T12:49:39.310Z,21.25
2023-02-23T12:52:18.627Z,22.83
2023-02-23T12:54:46.898Z,20.67
2023-02-23T12:57:19.499Z,19.65
2023-02-23T13:02:36.114Z,20.85
2023-02-23T13:05:20.181Z,22.23
2023-02-23T13:07:46.689Z,19.38
2023-02-23T13:10:38.593Z,20.23
2023-02-23T13:13:16.416Z,21.42
2023-02-23T13:15:59.811Z,19.23
2023-02-23T13:18:45.254Z,20.05
2023-02-23T13:21:28.804Z,17.17
2023-02-23T13:24:05.950Z,19.30
2023-02-23T13:26:54.099Z,21.65
2023-02-23T13:29:34.613Z,22.77
2023-02-23T13:32:02.986Z,28.55
2023-02-23T13:34:42.160Z,25.55
2023-02-23T13:37:12.812Z,19.33
2023-02-23T13:39:57.454Z,21.38
2023-02-23T13:42:30.885Z,18.13
2023-02-23T13:45:35.347Z,16.92
2023-02-23T13:48:33.034Z,17.60
2023-02-23T13:51:15.033Z,16.10
2023-02-23T13:53:43.301Z,17.67
2023-02-23T13:56:23.751Z,12.75
2023-02-23T13:59:08.311Z,10.10
2023-02-23T14:01:43.649Z,9.60
2023-02-23T14:04:28.840Z,10.57
2023-02-23T14:07:16.682Z,10.23
2023-02-23T14:09:55.780Z,10.23
2023-02-23T14:12:40.643Z,12.80
2023-02-23T14:15:26.213Z,11.55
2023-02-23T14:18:03.618Z,11.57
2023-02-23T14:20:47.220Z,10.90
2023-02-23T14:23:19.746Z,10.90
2023-02-23T14:26:37.337Z,13.48
2023-02-23T14:29:17.004Z,12.93
2023-02-23T14:32:24.375Z,12.07
2023-02-23T14:34:50.952Z,14.07
2023-02-23T14:37:25.452Z,12.85
2023-02-23T14:39:54.800Z,12.60
2023-02-23T14:42:27.494Z,13.90
2023-02-23T14:44:55.861Z,10.98
2023-02-23T14:47:26.073Z,9.57
2023-02-23T14:49:59.335Z,11.88
2023-02-23T14:55:13.471Z,10.25
2023-02-23T14:57:42.782Z,12.15
2023-02-23T15:00:22.941Z,10.63
2023-02-23T15:02:57.038Z,12.18
2023-02-23T15:05:26.771Z,12.73
2023-02-23T15:07:58.647Z,12.05
2023-02-23T15:10:33.330Z,14.18
2023-02-23T15:13:01.395Z,24.02
2023-02-23T15:15:28.359Z,20.30
2023-02-23T15:17:58.960Z,12.63
2023-02-23T15:20:33.682Z,13.60
2023-02-23T15:23:04.081Z,16.40
2023-02-23T15:25:37.258Z,12.45
2023-02-23T15:28:32.523Z,14.60
2023-02-23T15:31:04.659Z,11.65
2023-02-23T15:33:31.486Z,11.75
2023-02-23T15:36:09.464Z,11.98
2023-02-23T15:38:44.323Z,13.32
2023-02-23T15:41:28.672Z,10.43
2023-02-23T15:44:22.786Z,33.28
2023-02-23T15:46:56.902Z,22.05
2023-02-23T15:49:32.489Z,14.88
2023-02-23T15:52:06.537Z,11.45
2023-02-23T15:54:45.526Z,10.60
2023-02-23T15:57:20.027Z,13.10
2023-02-23T15:59:48.057Z,23.15
2023-02-23T16:02:20.142Z,20.33
2023-02-23T16:04:52.656Z,14.48
2023-02-23T16:07:22.236Z,12.35
2023-02-23T16:09:54.638Z,15.00
2023-02-23T16:15:06.533Z,9.55
2023-02-23T16:17:48.390Z,9.23
2023-02-23T16:20:38.447Z,7.97
2023-02-23T16:23:07.134Z,9.75
2023-02-23T16:25:35.042Z,9.10
2023-02-23T16:28:15.953Z,9.52
2023-02-23T16:30:50.103Z,10.13
2023-02-23T16:33:23.226Z,10.98
2023-02-23T16:35:53.553Z,12.93
2023-02-23T16:38:32.941Z,11.80
2023-02-23T16:40:59.566Z,13.82
2023-02-23T16:43:26.795Z,13.73
2023-02-23T16:45:53.602Z,13.23
2023-02-23T16:48:20.275Z,12.57
2023-02-23T16:50:48.222Z,13.10
2023-02-23T16:53:15.338Z,13.93
2023-02-23T16:56:02.172Z,12.60
2023-02-23T16:58:30.659Z,12.02
2023-02-23T17:00:57.463Z,14.38
2023-02-23T17:03:28.530Z,23.98
2023-02-23T17:08:24.380Z,15.48
2023-02-23T17:10:54.283Z,22.52
2023-02-23T17:13:23.990Z,20.38
2023-02-23T17:15:56.053Z,15.30
2023-02-23T17:20:58.554Z,13.95
2023-02-23T17:23:27.571Z,14.48
2023-02-23T17:25:55.861Z,13.73
2023-02-23T17:28:22.806Z,12.10
2023-02-23T17:30:49.588Z,12.95
2023-02-23T17:33:17.226Z,11.25
2023-02-23T17:35:43.923Z,11.77
2023-02-23T17:38:11.241Z,10.02
2023-02-23T17:40:38.400Z,11.02
2023-02-23T17:43:07.448Z,11.18
2023-02-23T17:45:34.205Z,11.45
2023-02-23T17:48:01.199Z,11.52
2023-02-23T17:50:28.318Z,11.50
2023-02-23T17:52:55.348Z,13.18
2023-02-23T17:55:23.193Z,12.82
2023-02-23T17:57:49.870Z,12.18
2023-02-23T18:00:18.183Z,10.98
2023-02-23T18:02:45.681Z,11.77
2023-02-23T18:05:14.054Z,10.07
2023-02-23T18:07:41.870Z,8.88
2023-02-23T18:10:09.360Z,10.60
2023-02-23T18:12:36.000Z,11.45
2023-02-23T18:15:02.625Z,9.15
2023-02-23T18:17:32.396Z,10.30
2023-02-23T18:19:59.709Z,9.43
2023-02-23T18:22:26.623Z,11.77
2023-02-23T18:24:53.121Z,11.32
2023-02-23T18:27:19.649Z,9.95
2023-02-23T18:29:46.239Z,12.25
2023-02-23T18:32:13.143Z,14.65
2023-02-23T18:34:39.804Z,12.70
2023-02-23T18:37:09.721Z,11.35
2023-02-23T18:39:36.241Z,8.82
2023-02-23T18:42:04.325Z,8.35
2023-02-23T18:44:32.416Z,10.43
2023-02-23T18:47:00.006Z,9.52
2023-02-23T18:49:27.077Z,9.45
2023-02-23T18:51:54.383Z,7.82
2023-02-23T18:54:22.398Z,6.43
2023-02-23T18:56:49.535Z,7.18
2023-02-23T18:59:16.371Z,5.95
2023-02-23T19:01:45.306Z,5.15
2023-02-23T19:04:13.032Z,6.10
2023-02-23T19:06:43.215Z,4.60
2023-02-23T19:09:12.433Z,5.10
2023-02-23T19:11:40.044Z,4.55
2023-02-23T19:14:11.481Z,4.10
2023-02-23T19:16:38.498Z,4.15
2023-02-23T19:19:06.982Z,4.07
2023-02-23T19:21:34.751Z,5.32
2023-02-23T19:24:02.829Z,5.82
2023-02-23T19:26:30.969Z,4.35
2023-02-23T19:28:58.155Z,4.13
2023-02-23T19:31:26.038Z,4.28
2023-02-23T19:33:55.915Z,3.85
2023-02-23T19:36:29.442Z,4.45
2023-02-23T19:39:10.316Z,4.35
2023-02-23T19:41:39.044Z,3.97
2023-02-23T19:44:05.853Z,3.85
2023-02-23T19:46:33.151Z,4.47
2023-02-23T19:48:59.884Z,4.50
2023-02-23T19:51:26.952Z,3.70
2023-02-23T19:53:54.721Z,3.60
2023-02-23T19:56:23.065Z,4.15
2023-02-23T19:58:49.631Z,3.50
2023-02-23T20:01:18.727Z,3.47
2023-02-23T20:03:49.393Z,3.95
2023-02-23T20:06:17.815Z,10.02
2023-02-23T20:08:45.903Z,5.78
2023-02-23T20:11:12.579Z,3.95
2023-02-23T20:13:39.298Z,3.88
2023-02-23T20:16:09.342Z,4.97
2023-02-23T20:18:38.488Z,4.95
2023-02-23T20:21:13.698Z,4.90
2023-02-23T20:23:41.227Z,6.97
2023-02-23T20:26:10.580Z,7.00
2023-02-23T20:28:37.487Z,6.65
2023-02-23T20:31:04.149Z,7.72
2023-02-23T20:33:31.404Z,6.57
2023-02-23T20:35:58.093Z,5.90
2023-02-23T20:38:24.669Z,5.15
2023-02-23T20:40:51.588Z,4.28
2023-02-23T20:43:18.202Z,4.50
2023-02-23T20:45:44.927Z,5.35
2023-02-23T20:48:11.573Z,5.40
2023-02-23T20:50:38.363Z,8.10
2023-02-23T20:53:05.780Z,6.93
2023-02-23T20:55:32.691Z,5.55
2023-02-23T20:57:59.637Z,9.90
2023-02-23T21:00:33.049Z,7.57
2023-02-23T21:03:03.552Z,6.47
2023-02-23T21:05:33.634Z,7.90
2023-02-23T21:08:05.795Z,7.10
2023-02-23T21:10:35.195Z,6.55
2023-02-23T21:13:02.490Z,8.60
2023-02-23T21:15:30.272Z,8.48
2023-02-23T21:17:58.264Z,10.68
2023-02-23T21:20:27.391Z,21.13
2023-02-23T21:22:54.598Z,21.95
2023-02-23T21:25:23.382Z,16.63
2023-02-23T21:27:49.969Z,13.18
2023-02-23T21:30:21.546Z,14.82
2023-02-23T21:32:49.920Z,9.40
2023-02-23T21:35:16.996Z,6.90
2023-02-23T21:37:43.633Z,7.32
2023-02-23T21:40:12.845Z,6.13
2023-02-23T21:42:40.966Z,8.30
2023-02-23T21:45:09.634Z,8.38
2023-02-23T21:47:38.619Z,6.80
2023-02-23T21:50:06.198Z,25.42
2023-02-23T21:52:33.362Z,52.53
2023-02-23T21:55:02.335Z,42.97
2023-02-23T21:57:30.952Z,24.00
2023-02-23T21:59:57.623Z,27.85
2023-02-23T22:02:24.257Z,29.33
2023-02-23T22:04:50.994Z,159.43
2023-02-23T22:07:17.625Z,52.13
2023-02-23T22:09:44.562Z,31.17
2023-02-23T22:12:11.294Z,48.80
2023-02-23T22:14:37.932Z,34.40
2023-02-23T22:17:06.261Z,36.80
2023-02-23T22:19:33.082Z,23.90
2023-02-23T22:21:59.612Z,11.50
2023-02-23T22:24:26.167Z,13.18
2023-02-23T22:26:55.766Z,11.63
2023-02-23T22:29:25.489Z,9.77
2023-02-23T22:31:52.486Z,8.85
2023-02-23T22:34:19.286Z,7.63
2023-02-23T22:36:46.173Z,13.55
2023-02-23T22:39:14.025Z,11.70
2023-02-23T22:41:43.490Z,8.23
2023-02-23T22:44:17.093Z,10.60
2023-02-23T22:46:47.936Z,7.78
2023-02-23T22:49:15.829Z,7.28
2023-02-23T22:51:43.706Z,5.82
2023-02-23T22:54:11.605Z,4.70
2023-02-23T22:56:39.623Z,6.70
2023-02-23T22:59:08.523Z,7.68
2023-02-23T23:01:38.375Z,12.55
2023-02-23T23:04:10.158Z,10.70
2023-02-23T23:06:38.303Z,10.30
2023-02-23T23:09:04.981Z,7.50
2023-02-23T23:11:31.845Z,7.82
2023-02-23T23:14:02.818Z,18.67
2023-02-23T23:16:33.541Z,10.48
2023-02-23T23:19:11.986Z,6.20
2023-02-23T23:21:40.769Z,4.10
2023-02-23T23:24:08.791Z,3.42
2023-02-23T23:26:39.602Z,6.40
2023-02-23T23:29:10.181Z,5.80
2023-02-23T23:31:40.293Z,9.73
2023-02-23T23:34:10.206Z,9.02
2023-02-23T23:36:43.208Z,10.10
2023-02-23T23:39:16.011Z,9.27
2023-02-23T23:41:43.860Z,6.38
2023-02-23T23:44:10.673Z,4.35
2023-02-23T23:46:42.537Z,4.72
2023-02-23T23:49:13.281Z,3.90
2023-02-23T23:51:45.395Z,4.85
2023-02-23T23:54:14.943Z,4.72
2023-02-23T23:56:43.568Z,4.18
2023-02-23T23:59:17.080Z,4.03
